• Join FlightAware (Why Join?)
  • Login
  • US Flag 
Rudolph Flight #1: Arrived! 
06:33AM EST


 

Airport Tracker/Info


-or-


 

Live Flight TrackerFlight Track Log ✈ FSR411 ✈ 07-Nov-2013 ✈ KROA - KCMI

Flight Track Log - Related Links

Times and Time Zones

All times are in EST time to prevent confusion due to time zone crossing. See the FSR411 flight status page for this flight to view local times or setup timezone preferences in your user account.

Time Position Orientation Groundspeed Altitude Reporting Facility
EST Latitude Longitude Course Direction KTS MPH feet Rate Location/Type
12:25PM 37.7411 -81.1608 295° West 390 449 27,900  Level Indianapolis Center
12:27PM 37.7947 -81.3097 295° West 398 458 28,000 480 Climbing Indianapolis Center
12:28PM 37.8408 -81.4325 295° West 395 455 28,900 1,380 Climbing Indianapolis Center
12:29PM 37.8858 -81.5575 295° West 386 444 30,900 1,740 Climbing Indianapolis Center
12:30PM 37.9411 -81.6725 301° West 381 438 32,600 1,560 Climbing Indianapolis Center
12:31PM 38.0011 -81.7856 304° West 384 442 34,200 1,380 Climbing Indianapolis Center
12:32PM 38.0606 -81.8981 296° West 383 441 35,500 1,380 Climbing Indianapolis Center
12:33PM 38.1469 -81.9881 321° Northwest 401 461 37,100 1,380 Climbing Indianapolis Center
12:34PM 38.2319 -82.0781 320° Northwest 397 457 38,400 960 Climbing Indianapolis Center
12:35PM 38.3203 -82.1983 313° West 402 463 39,200 780 Climbing Indianapolis Center
12:36PM 38.3581 -82.3175 292° West 368 423 40,100 900 Climbing Indianapolis Center
12:37PM 38.3939 -82.4383 291° West 363 418 41,100 840 Climbing Indianapolis Center
12:38PM 38.4342 -82.5642 292° West 362 417 41,900 660 Climbing Indianapolis Center
12:39PM 38.4706 -82.6819 292° West 359 413 42,500 480 Climbing Indianapolis Center
12:40PM 38.5067 -82.7986 292° West 356 410 43,000 240 Climbing Indianapolis Center
12:41PM 38.5447 -82.9225 291° West 366 421 43,000  Level Indianapolis Center
12:42PM 38.5831 -83.0472 291° West 375 432 43,000  Level Indianapolis Center
12:43PM 38.6278 -83.1958 291° West 382 440 43,000  Level Indianapolis Center
12:44PM 38.6667 -83.3208 292° West 382 440 43,000  Level Indianapolis Center
12:45PM 38.7047 -83.4447 292° West 377 434 43,000  Level Indianapolis Center
12:46PM 38.7419 -83.5692 291° West 375 432 43,000  Level Indianapolis Center
12:47PM 38.7797 -83.6928 291° West 373 429 43,000  Level Indianapolis Center
12:48PM 38.8167 -83.8186 291° West 376 433 43,000  Level Indianapolis Center
12:49PM 38.8539 -83.9456 291° West 379 436 43,000  Level Indianapolis Center
12:50PM 38.8989 -84.0964 291° West 379 436 43,000  Level Indianapolis Center
12:51PM 38.9364 -84.2236 291° West 378 435 43,000  Level Indianapolis Center
12:52PM 38.9739 -84.3536 290° West 384 442 43,000  Level Indianapolis Center
12:53PM 39.0119 -84.4828 291° West 386 444 43,000  Level Indianapolis Center
12:54PM 39.0517 -84.6133 291° West 391 450 43,000  Level Indianapolis Center
12:55PM 39.0883 -84.7442 290° West 389 448 43,000 -360 Level Indianapolis Center
12:56PM 39.1319 -84.8978 290° West 389 448 42,300 -1,080 Descending Indianapolis Center
12:57PM 39.1686 -85.0231 291° West 378 435 40,800 -1,560 Descending Indianapolis Center
12:58PM 39.2042 -85.1489 290° West 374 430 39,100 -1,620 Descending Indianapolis Center
01:00PM 39.2386 -85.2714 290° West 369 425 37,500 -1,500 Descending Indianapolis Center
01:01PM 39.2722 -85.3922 290° West 359 413 36,100 -1,200 Descending Indianapolis Center
01:02PM 39.3064 -85.5125 290° West 358 412 35,100 -540 Descending Indianapolis Center
01:03PM 39.3481 -85.6628 290° West 370 426 35,000 -120 Descending Indianapolis Center
01:04PM 39.3828 -85.7881 290° West 371 427 34,900 -600 Descending Indianapolis Center
01:05PM 39.4169 -85.9117 290° West 368 423 33,800 -1,140 Descending Indianapolis Center
01:06PM 39.4508 -86.0331 290° West 361 415 32,600 -1,260 Descending Indianapolis Center
01:07PM 39.4839 -86.1561 289° West 362 417 31,200 -1,320 Descending Indianapolis Center
01:08PM 39.5181 -86.2800 290° West 363 418 29,900 -1,500 Descending Indianapolis Center
01:09PM 39.5506 -86.4017 289° West 357 411 28,100 -1,980 Descending Indianapolis Center
01:10PM 39.5894 -86.5422 290° West 345 397 25,900 -1,800 Descending Indianapolis Center
01:11PM 39.6178 -86.6511 289° West 329 379 24,400 -1,680 Descending Indianapolis Center
01:12PM 39.6450 -86.7542 289° West 309 356 22,500 -1,800 Descending Indianapolis Center
01:13PM 39.6731 -86.8581 289° West 306 352 20,700 -1,860 Descending Indianapolis Center
01:14PM 39.6994 -86.9597 289° West 300 345 18,700 -1,740 Descending Indianapolis Center
01:15PM 39.7275 -87.0664 289° West 308 354 17,200 -1,740 Descending Indianapolis Center
01:16PM 39.7631 -87.2008 289° West 324 373 15,200 -1,680 Descending Indianapolis Center
01:17PM 39.7908 -87.3097 288° West 321 369 13,700 -1,320 Descending Indianapolis Center
01:18PM 39.8192 -87.4167 289° West 317 365 12,500 -1,260 Descending Indianapolis Center
01:19PM 39.8467 -87.5208 289° West 310 357 11,200 -1,440 Descending Indianapolis Center
01:20PM 39.8692 -87.6117 288° West 273 314 9,600 -1,620 Descending Indianapolis Center
01:21PM 39.8911 -87.6961 289° West 250 288 7,900 -1,800 Descending Indianapolis Center
01:22PM 39.9181 -87.7942 290° West 243 280 5,900 -1,500 Descending Indianapolis Center
01:23PM 39.9364 -87.8661 288° West 241 277 4,800 -1,080 Descending Indianapolis Center
01:25PM 39.9667 -88.0109 270° West  Level FlightAware Approximate
01:32PM 40.0333 -88.2667 288° West  Level FlightAware Approximate
01:33PM 40.0388 -88.2778 288° West  Level Estimated
01:34PM 40.0388 -88.2778 288° West  Level Estimated
01:35PM 40.0388 -88.2778 288° West  Level Estimated
01:36PM 40.0388 -88.2778 288° West  Level Estimated